Weather observations for the past three days for
Rochelle, Rochelle Municipal-Koritz Field Airport
Metric (Imperial)
Date Time (cdt) Wind (kph) Vis. (km) Weather Sky Cond. Temperature (ºC) Relative Humidity Wind Chill (°C) Heat Index (°C) Pressure Precipitation (cm)
Air Dwpt 6 hour altimeter (cm) sea level (mb) 1 hr 3 hr 6 hr
Max. Min.
02 00:55 S 9 16.09 Fair CLR 23.2 22 29 23 93% 76.12 0.0
02 00:35 S 9 16.09 Fair CLR 23.1 21.8 92% 76.1 0.0
02 00:15 S 9 16.09 Fair CLR 23.1 21.9 93% 76.12 0.0
01 23:55 S 9 16.09 Fair CLR 23.1 21.7 92% 76.12 0.0
01 23:35 S 7 16.09 Fair CLR 23.5 22 91% 76.12 0.0
01 23:15 S 9 16.09 Fair CLR 23.5 22.1 92% 76.1 0.0
01 22:55 S 9 16.09 Fair CLR 23.7 22.3 92% 76.1 0.0
01 22:35 S 9 16.09 Fair CLR 23.7 22.5 93% 76.12 0.0
01 22:15 S 7 16.09 Fair CLR 23.8 22.7 94% 76.12 0.0
01 21:55 S 7 16.09 Fair CLR 23.8 22.8 94% 76.12 0.0
01 21:35 S 7 16.09 Fair CLR 24 22.9 94% 23 76.12 0.0
01 21:15 S 7 16.09 Fair CLR 24.2 23.1 94% 24 76.12 0.0
01 20:55 S 7 16.09 Fair CLR 24.8 23.5 93% 25 76.12 0.0
01 20:35 S 9 16.09 Fair CLR 25.5 24 91% 27 76.1 0.0
01 20:15 S 9 16.09 Fair CLR 25.6 24.2 92% 27 76.07 0.0
01 19:55 S 9 16.09 Fair CLR 26 24.2 90% 28 76.05 0.0
01 19:35 S 9 16.09 Fair CLR 26.7 24.5 88% 30 76.05 0.0
01 19:15 S 7 16.09 Fair CLR 27.7 24.5 83% 32 76.05 0.0
01 18:55 S 7 16.09 Fair CLR 29.1 24.4 33.8 29.1 76% 34 76.05 0.0
01 18:35 S 9 16.09 Fair CLR 30.2 24.6 72% 36 76.05 0.0
01 18:15 S 7 16.09 Fair CLR 31.2 24.1 66% 37 76.07 0.0
01 17:55 S 6 16.09 Fair CLR 31.9 24.4 65% 38 76.07 0.0
01 17:35 SW 9 16.09 Mostly Cloudy BKN090 32.2 23.7 61% 38 76.07 0.0
01 17:15 S 13 16.09 Overcast OVC090 32.6 24 61% 39 76.07 0.0
01 16:55 S 13 16.09 Mostly Cloudy BKN090 32.4 23.4 59% 38 76.07 0.0
01 16:35 S 13 16.09 Fair CLR 32.4 23.7 60% 38 76.07 0.0
01 16:15 SW 13 16.09 Fair CLR 33.5 24.1 58% 40 76.07 0.0
01 15:55 SW 9 16.09 Partly Cloudy SCT095 33.6 24.2 58% 40 76.07 0.0
01 15:35 SW 9 16.09 Partly Cloudy SCT095 33.8 23.9 56% 40 76.1 0.0
01 15:15 SW 9 16.09 Partly Cloudy SCT095 33.8 23.5 55% 40 76.1 0.0
01 14:55 SW 11 16.09 Fair CLR 33.5 23.7 56% 39 76.1 0.0
01 14:35 SW 13 16.09 Fair CLR 33.3 23.7 57% 39 76.1 0.0
01 14:15 SW 13 16.09 Fair CLR 33.2 24.1 59% 40 76.12 0.0
01 13:55 SW 9 16.09 Fair CLR 32.8 23.9 59% 39 76.12 0.0
01 13:35 S 13 16.09 Fair CLR 32.6 24 61% 39 76.12 0.0
01 13:15 SW 11 16.09 Fair CLR 32.4 24.3 62% 39 76.12 0.0
01 12:55 SW 9 16.09 Fair CLR 32.1 24.6 32.1 20.8 65% 39 76.15 0.0
01 12:35 SW 15 16.09 Fair CLR 32 24.7 65% 39 76.15 0.0
01 12:15 SW 13 16.09 Fair CLR 31.8 24.3 65% 38 76.17 0.0
01 11:55 SW 13 16.09 Fair CLR 31.5 24.6 67% 38 76.17 0.0
01 11:35 W 9 16.09 Fair CLR 31 24.4 68% 37 76.17 0.0
01 11:15 SW 7 16.09 Fair CLR 30.5 24.1 69% 36 76.17 0.0
01 10:55 SW 7 16.09 Fair CLR 29.8 24.3 72% 35 76.17 0.0
01 10:35 SW 11 16.09 Fair CLR 29.1 23.9 74% 34 76.17 0.0
01 10:15 SW 9 16.09 Fair CLR 28.8 23.6 74% 33 76.17 0.0
01 09:55 SW 9 16.09 Fair CLR 28.1 23.2 75% 32 76.17 0.0
01 09:35 SW 7 16.09 Fair CLR 27.4 23.2 78% 30 76.17 0.0
01 09:15 SW 9 16.09 Fair CLR 26.6 22.6 79% 29 76.17 0.0
01 08:55 SW 9 11.27 Fair CLR 26 22.7 82% 28 76.17 0.0
01 08:35 SW 11 16.09 Fair CLR 25.5 22.6 84% 27 76.17 0.0
01 08:15 SW 9 16.09 Fair CLR 24.1 23 94% 23 76.17 0.0
01 07:55 Calm 11.27 Fair CLR 23.3 22.3 94% 76.17 0.0
01 07:35 Calm 8.05 Fog/Mist CLR 22.5 21.5 94% 76.17 0.0
01 07:15 Calm 6.44 Fog/Mist CLR 21.4 20.4 94% 76.17 0.0
01 06:55 Calm 6.44 Fog/Mist CLR 20.9 20 22.7 20.5 95% 76.15 0.0
01 06:35 Calm 6.44 Fog/Mist CLR 20.6 19.7 95% 76.15 0.0
01 06:15 Calm 6.44 Fog/Mist CLR 20.9 19.9 94% 76.12 0.0
01 05:55 Calm 8.05 Fog/Mist CLR 20.5 19.6 95% 76.12 0.0
01 05:35 Calm 8.05 Fog/Mist CLR 20.8 19.8 94% 76.1 0.0
01 05:15 Calm 8.05 Fog/Mist CLR 21.1 20.1 94% 76.1 0.0
01 04:55 Calm 11.27 Fair CLR 21.3 20.3 94% 76.1 0.0
01 04:35 Calm 11.27 Fair CLR 22.1 21.1 94% 76.1 0.0
01 04:15 Calm 11.27 Fair CLR 22 21 94% 76.1 0.0
01 03:55 Calm 11.27 Fair CLR 22 21 94% 76.1 0.0
01 03:35 Calm 11.27 Fair CLR 22 21 94% 76.07 0.0
01 03:15 Calm 11.27 Fair CLR 22 21 94% 76.1 0.0
01 02:55 Calm 16.09 Fair CLR 22.3 21.3 94% 76.1 0.0
01 02:35 Calm 16.09 Fair CLR 22.7 21.7 94% 76.1 0.0
01 02:15 Calm 16.09 Fair CLR 22.2 21.2 94% 76.1 0.0
01 01:55 Calm 11.27 Fair CLR 22 21 94% 76.07 0.0
01 01:35 Calm 11.27 Fair CLR 22.5 21.5 94% 76.07 0.0
01 01:15 S 7 11.27 Fair CLR 22.3 21.3 94% 76.07 0.0
01 00:55 S 6 11.27 Fair CLR 22.7 21.7 26.8 22.7 94% 76.07 0.0
01 00:35 S 6 11.27 Fair CLR 22.7 21.7 94% 76.07 0.0
01 00:15 S 7 11.27 Fair CLR 23 22 94% 76.07 0.0
31 23:55 S 6 11.27 Fair CLR 23.2 22.2 94% 76.07 0.0
31 23:35 S 7 11.27 Fair CLR 23.5 22.5 94% 76.07 0.0
31 23:15 S 7 16.09 Fair CLR 23 22 94% 76.1 0.0
31 22:55 S 6 11.27 Fair CLR 22.7 21.7 94% 76.1 0.0
31 22:35 S 7 16.09 Fair CLR 23.2 22.2 94% 76.1 0.0
31 22:15 Calm 16.09 Fair CLR 23.1 22.1 94% 76.1 0.0
31 21:55 SE 7 11.27 Fair CLR 23.3 22.3 94% 76.1 0.0
31 21:35 Calm 11.27 Fair CLR 23.5 22.5 94% 76.1 0.0
31 21:15 Calm 11.27 Fair CLR 23.9 22.9 94% 23 76.1 0.0
31 20:55 Calm 16.09 Fair CLR 24.5 23.3 93% 24 76.07 0.0
31 20:35 Calm 16.09 Fair CLR 24.6 23.5 94% 25 76.07 0.0
31 20:15 Calm 16.09 Fair CLR 25 23.5 91% 26 76.05 0.0
31 19:55 S 7 16.09 Fair CLR 25.7 23.5 88% 27 76.02 0.0
31 19:35 S 9 16.09 Fair CLR 25.5 24 91% 27 76.02 0.0
31 19:15 Calm 16.09 Fair CLR 26.3 23.9 87% 29 76.05 0.0
31 18:35 SW 9 16.09 Fair CLR 27.5 24 81% 31 76.02 0.0
31 18:15 Calm 16.09 Fair CLR 28.5 24.3 78% 33 76.02 0.0
31 17:55 S 7 16.09 Partly Cloudy SCT033 SCT060 SCT075 28.4 24.2 78% 33 75.97 0.0
31 17:35 S 9 16.09 Light Rain SCT070 SCT100 BKN120 28.6 22.5 70% 32 76.05 0.0
31 17:15 SW 7 16.09 Partly Cloudy SCT120 30 22.2 63% 33 76.02 0.0
31 16:55 S 7 16.09 Mostly Cloudy SCT048 SCT060 BKN120 29.8 22.2 64% 33 76 0.0
31 16:35 SW 13 16.09 Mostly Cloudy SCT090 BKN120 29.6 22.4 65% 33 76.02 0.0
31 16:15 SW 15 16.09 Mostly Cloudy BKN120 30.1 21.7 61% 33 76 0.0
31 15:55 SW 11 16.09 Partly Cloudy SCT120 29.9 21.1 59% 32 76 0.0
31 15:35 S 13 16.09 Partly Cloudy SCT120 30.4 21.3 58% 33 76 0.0
31 15:15 SW 11 16.09 Fair CLR 29.9 20.7 58% 32 76.02 0.0
31 14:55 SW 11 16.09 Partly Cloudy SCT120 30.2 21.3 59% 33 76.02 0.0
31 14:35 SW 7 16.09 Overcast OVC120 29.3 21.4 62% 32 76.05 0.0
31 14:15 SW 13 16.09 Overcast OVC120 29 20.9 62% 31 76.05 0.0
31 13:55 SW 13 16.09 Mostly Cloudy BKN120 30 21.1 59% 33 76.02 0.0
31 13:35 W 6 16.09 Partly Cloudy SCT032 SCT090 SCT110 27.7 21.8 70% 30 76.05 0.0
31 13:15 SW 13 G 26 16.09 Light Rain SCT026 SCT032 SCT038 28.4 20 60% 30 76.05 0.0
31 12:55 W 20 G 30 16.09 Partly Cloudy SCT120 30.6 19.8 30.6 21.6 53% 32 76.05 0.0
31 12:35 SW 15 G 28 16.09 Fair CLR 30.1 20.5 56% 32 76.05 0.0
31 12:15 SW 15 G 26 16.09 Fair CLR 29.6 19.9 56% 31 76.05 0.0
31 11:55 SW 20 G 30 16.09 Partly Cloudy SCT120 29.3 19.2 55% 31 76.07 0.0
31 11:35 SW 15 16.09 Fair CLR 28 19.3 59% 29 76.07 0.0
31 11:15 SW 19 16.09 Fair CLR 27.6 19.2 60% 29 76.07 0.0
31 10:55 SW 15 G 30 16.09 Fair CLR 27.7 18.7 58% 29 76.07 0.0
31 10:35 S 20 G 31 16.09 Fair CLR 27.2 18 57% 28 76.07 0.0
31 10:15 S 22 G 31 16.09 Partly Cloudy SCT110 27 18.1 58% 28 76.07 0.0
31 09:55 S 13 16.09 Mostly Cloudy BKN100 25.5 17.7 62% 26 76.05 0.0
31 09:35 S 17 16.09 Mostly Cloudy BKN100 25.5 18 63% 26 76.07 0.0
31 09:15 S 15 16.09 Overcast OVC100 24.6 17.8 66% 26 76.05 0.0
31 08:55 S 15 16.09 Overcast SCT080 OVC100 23.8 18.2 71% 76.07 0.0
31 08:35 S 13 11.27 Mostly Cloudy SCT080 BKN100 23.1 18.1 74% 76.05 0.0
31 08:15 S 11 16.09 Mostly Cloudy BKN100 BKN120 22.7 17.9 74% 76.05 0.0
31 07:55 S 11 16.09 Overcast OVC100 22.5 17.5 73% 76.05 0.0
31 07:35 S 11 16.09 Overcast BKN100 OVC120 22 17.2 74% 76.05 0.0
31 07:15 S 11 16.09 Overcast BKN090 OVC120 21.6 17.1 76% 76.05 0.0
31 06:55 S 11 16.09 Overcast BKN090 OVC120 21.6 17.1 22 20.1 76% 76.05 0.0
31 06:35 S 11 16.09 Overcast BKN090 OVC110 21.7 17.1 75% 76.02 0.0
31 06:15 S 9 16.09 Overcast BKN090 OVC110 21.6 17.4 77% 76.02 0.0
31 05:55 S 9 16.09 Overcast OVC090 21.5 17.5 78% 76.02 0.0
31 05:35 S 11 16.09 Overcast OVC100 21.3 17.7 80% 76.02 0.0
31 05:15 S 11 16.09 Mostly Cloudy SCT085 BKN110 21.2 17.8 81% 76.05 0.0
31 04:55 S 9 16.09 Light Rain BKN085 BKN110 21.6 17.7 79% 76.05 0.0
31 04:35 S 9 16.09 Partly Cloudy SCT085 21.9 17.4 76% 76.05 0.0
31 04:15 S 6 16.09 Fair CLR 21.7 17.4 77% 76.05 0.0
31 03:55 Calm 16.09 Fair CLR 21.3 17.5 79% 76.05 0.0
31 03:35 S 6 16.09 Fair CLR 21.5 17.3 77% 76.05 0.0
31 03:15 S 9 16.09 Fair CLR 21.6 17.3 77% 76.02 0.0
31 02:55 S 7 16.09 Fair CLR 21.8 17.4 76% 76.05 0.0
31 02:35 S 7 16.09 Fair CLR 21.4 18 81% 76.05 0.0
31 02:15 Calm 16.09 Fair CLR 20.6 18.3 87% 76.07 0.0
31 01:55 Calm 16.09 Fair CLR 20.1 19 93% 76.07 0.0
31 01:35 Calm 16.09 Fair CLR 20.5 18.9 91% 76.1 0.0
31 01:15 Calm 16.09 Fair CLR 21 19.7 92% 76.1 0.0
31 00:55 Calm 16.09 Fair CLR 21.6 20 23 21.6 91% 76.1 0.0 0.05
31 00:35 Calm 16.09 Fair CLR 22 20.3 90% 76.12 0.0
31 00:15 S 6 16.09 Fair CLR 22.6 20.5 88% 76.1 0.0
30 23:55 S 11 16.09 Fair CLR 22.6 21 91% 76.1 0.0
30 23:35 SE 11 16.09 Fair CLR 22.6 21 91% 76.1 0.0
30 23:15 SE 11 16.09 Fair CLR 22.7 21 90% 76.12 0.0
30 22:55 SE 13 16.09 Fair CLR 22.6 21 91% 76.12 0.0
30 22:35 SE 11 16.09 Fair CLR 22.5 21 91% 76.15 0.0
30 22:15 SE 7 16.09 Fair CLR 22.2 21 93% 76.2 0.0
30 21:55 E 11 16.09 Fair CLR 22.2 20.6 91% 76.17 0.0 0.05
30 21:35 E 7 16.09 Fair CLR 22.2 20.9 92% 76.2 0.0
30 21:15 E 7 16.09 Fair CLR 22.7 20.6 88% 76.2 0.0
30 20:55 NE 7 16.09 Fair CLR 22.8 20.6 87% 76.2 0.0
30 20:35 S 11 16.09 Fair CLR 22.5 20.7 90% 76.15 0.0
30 20:15 SE 9 16.09 Partly Cloudy SCT070 SCT110 21.8 20.8 94% 76.12 0.0
30 19:55 Calm 11.27 Light Drizzle SCT070 OVC100 21.6 20.6 94% 76.17 0.0 0.05
30 19:35 S 7 11.27 Rain SCT080 OVC110 21.8 20.7 94% 76.17 0.0 0.03
30 19:15 S 9 8.05 Light Rain SCT060 SCT075 BKN120 21.8 20.8 94% 76.17 0.0
30 18:55 Calm 16.09 Light Rain SCT060 SCT075 SCT090 22.1 20.7 25.1 22.1 92% 76.2 0.0 0.08
30 18:35 Calm 16.09 Light Drizzle SCT050 SCT070 SCT085 22.3 20.6 90% 76.15 0.0
30 18:15 S 11 16.09 Fair CLR 22.2 20.7 91% 76.12 0.0
30 17:55 S 7 11.27 Light Rain SCT120 22.5 21.1 92% 76.15 0.0
30 17:35 SE 9 16.09 Mostly Cloudy BKN120 22.6 21 91% 76.12 0.0
30 17:15 S 15 11.27 Mostly Cloudy BKN100 22.5 21.2 92% 76.12 0.0
30 16:55 SE 11 8.05 Light Rain OVC100 22.6 21.1 91% 76.15 0.0 0.03
30 16:35 S 7 11.27 Rain SCT060 SCT075 OVC100 22.6 21.2 92% 76.17 0.0
30 16:15 S 6 16.09 Light Rain SCT038 BKN075 OVC090 23 21.5 91% 76.2 0.0
30 15:55 Calm 16.09 Light Rain SCT042 BKN070 OVC080 23 21.2 90% 76.2 0.0 0.03 0.03
30 15:35 S 6 16.09 Rain SCT046 BKN070 OVC090 23.3 21.1 88% 76.2 0.0 0.03
30 15:15 SW 6 11.27 Light Rain SCT041 BKN065 BKN090 23.5 20.1 81% 76.2 0.0
30 14:55 SW 6 16.09 Light Rain SCT034 SCT044 SCT055 24.3 19.9 77% 25 76.23 0.0
30 14:35 SW 7 16.09 Partly Cloudy SCT070 SCT080 SCT120 24 20.3 80% 24 76.25 0.0
30 14:15 Calm 16.09 Light Rain SCT045 SCT060 BKN080 23.5 20.5 83% 76.23 0.0
30 13:55 SW 7 16.09 Mostly Cloudy SCT050 SCT070 BKN095 23.5 19.8 80% 76.17 0.0
30 13:35 SW 6 16.09 Light Rain SCT055 BKN080 OVC110 23.6 19.6 78% 76.17 0.0
30 13:15 SW 11 16.09 Light Rain SCT055 SCT070 OVC110 24.7 19.1 71% 26 76.17 0.0
30 12:55 SW 20 G 33 16.09 Overcast OVC110 25 18.7 25.2 19.7 68% 26 76.17 0.0 0.03
30 12:35 SW 26 G 33 16.09 Overcast OVC110 25 18.6 68% 26 76.1 0.0
30 12:15 S 26 G 35 16.09 Overcast OVC110 24.1 18.1 69% 25 76.1 0.0
30 11:55 S 22 G 37 16.09 Mostly Cloudy BKN110 23.9 17.8 69% 25 76.12 0.0
30 11:35 S 26 G 33 16.09 Overcast OVC110 23.6 17.7 70% 76.15 0.0
30 11:15 S 20 G 33 16.09 Overcast OVC110 24.1 18.1 69% 25 76.15 0.0
30 10:55 S 20 G 35 16.09 Mostly Cloudy BKN110 23.8 18.1 71% 76.12 0.0
30 10:35 S 20 G 28 16.09 Mostly Cloudy BKN110 23.5 18 71% 76.12 0.0
30 10:15 S 15 16.09 Overcast OVC110 23 18.1 74% 76.12 0.0
30 09:55 S 19 G 26 16.09 Overcast OVC110 23 18.1 74% 76.12 0.0 0.03
30 09:35 S 17 G 26 16.09 Mostly Cloudy BKN110 22.2 18.1 78% 76.1 0.0
30 09:15 S 17 11.27 Partly Cloudy SCT024 SCT034 SCT047 21.5 18.4 83% 76.12 0.0
30 08:55 S 15 11.27 Light Rain SCT026 SCT036 BKN110 21 18.4 85% 76.15 0.0 0.03
30 08:35 S 13 16.09 Overcast SCT049 SCT065 OVC110 21.3 17.8 81% 76.17 0.0
30 08:15 S 11 16.09 Mostly Cloudy SCT060 SCT090 BKN110 21.2 18.1 83% 76.17 0.0
30 07:55 S 11 11.27 Overcast OVC110 20.6 18 85% 76.17 0.0
30 07:35 S 15 8.05 Mostly Cloudy with Haze BKN110 20.5 18 86% 76.17 0.0
30 07:15 S 11 11.27 Light Drizzle SCT070 SCT085 OVC110 20 18.2 89% 76.17 0.0
30 06:55 SE 15 11.27 Light Rain SCT050 SCT065 OVC110 19.7 18.4 21.7 19.7 92% 76.2 0.0 0.05 0.05
30 06:35 SE 9 6.44 Light Rain SCT046 SCT065 BKN080 19.8 18.2 91% 76.2 0.0 0.05
30 06:15 S 6 11.27 Light Rain SCT055 SCT065 BKN120 20.1 18.1 88% 76.2 0.0
30 05:55 S 13 16.09 Drizzle BKN110 20.3 17.9 86% 76.17 0.0
30 05:35 SW 13 16.09 Light Rain SCT065 SCT080 BKN110 20 18.1 89% 76.15 0.0
30 05:15 S 11 16.09 Light Rain SCT085 BKN110 19.9 18 89% 76.12 0.0
30 04:55 S 11 16.09 Light Rain SCT060 SCT080 SCT100 20.1 17.6 86% 76.12 0.0
30 04:35 S 13 16.09 Light Rain SCT048 SCT070 SCT075 20.6 17 80% 76.12 0.0
30 04:15 S 13 16.09 Fair CLR 20.6 16.7 78% 76.1 0.0
30 03:55 S 7 16.09 Fair CLR 20.5 16.6 78% 76.12 0.0
30 03:35 S 6 16.09 Fair CLR 20.5 16.5 78% 76.12 0.0
30 03:15 S 7 16.09 Fair CLR 20.7 16.5 77% 76.12 0.0
30 02:55 S 9 16.09 Fair CLR 21.2 16.3 74% 76.12 0.0
30 02:35 S 9 16.09 Partly Cloudy SCT120 21.6 16.1 71% 76.15 0.0
30 02:15 S 13 16.09 Partly Cloudy SCT120 21.7 16.1 71% 76.15 0.0
30 01:55 S 11 16.09 Fair CLR 21.6 16.2 71% 76.15 0.0
30 01:35 S 9 16.09 Fair CLR 21.7 16.2 71% 76.17 0.0
30 01:15 S 9 16.09 Fair CLR 21.5 16.2 72% 76.17 0.0
Date Time (cdt) Wind (kph) Vis. (km) Weather Sky Cond. Air Dwpt Max. Min. Relative Humidity Wind Chill (°C) Heat Index (°C) altimeter (cm) sea level (mb) 1 hr 3 hr 6 hr
6 hour
Temperature (ºC) Pressure Precipitation (cm)